Dr.kaiyo — JD2325 — position and weather

sailwx.info

Track history (hours):
 
Tides and Currents Weather Stations Pressure Air Temp Water Temp Dewpoint Dewpoint Depression Visibility Wind Speed Wind Dir Waves Ship Positions

Dr.kaiyo

Last reported at 2017-Aug-23 05:23 UTC. Time now 2017-Aug-23 17:14 UTC.
Position N 34°41' E 135°12'.

Length 31 m.

Type: Other ship. MMSI: 431301823.

Date/timePositionNaut miles runAvg speedWind from/ knotsBaromVisibWave heightAir tempDewpointWater temp
2017-Aug-23 05:23N 34°41' E 135°12'2 4.5
2017-Aug-23 05:00N 34°41' E 135°14'2 3.9
2017-Aug-23 04:30N 34°40' E 135°15'4 7.8
2017-Aug-23 04:00N 34°40' E 135°20'0 0.0
2017-Aug-23 03:30N 34°40' E 135°20'0 0.0
2017-Aug-23 03:00N 34°40' E 135°20'4 8.3
2017-Aug-23 02:30N 34°37' E 135°16'713.8
2017-Aug-23 02:00N 34°32' E 135°12'4 8.9
2017-Aug-23 01:30N 34°30' E 135°06'3 5.8
2017-Aug-23 01:01N 34°33' E 135°07'4 8.4
2017-Aug-23 00:30N 34°36' E 135°11'510.5
2017-Aug-23 00:00N 34°40' E 135°15'3 5.7
2017-Aug-22 23:31N 34°42' E 135°12'0 0.0
2017-Aug-22 04:46N 34°41' E 135°12'0 0.0
2017-Aug-22 04:31N 34°41' E 135°12'4 8.7
2017-Aug-22 04:01N 34°38' E 135°16'713.8
2017-Aug-22 03:31N 34°34' E 135°09'4 8.0
2017-Aug-22 03:00N 34°32' E 135°05'4 8.4
2017-Aug-22 02:30N 34°28' E 135°05'4 7.4
2017-Aug-22 01:56N 34°24' E 135°05'4 7.7
2017-Aug-22 01:24N 34°24' E 135°10'3 8.5
2017-Aug-22 01:00N 34°27' E 135°10'4 8.7
2017-Aug-22 00:30N 34°31' E 135°13'4 8.8
2017-Aug-22 00:00N 34°35' E 135°16'510.6
2017-Aug-21 23:30N 34°40' E 135°15'3 5.8
2017-Aug-21 23:00N 34°41' E 135°12'0 0.0
2017-Aug-21 06:16N 34°41' E 135°12'1 2.3
2017-Aug-21 06:00N 34°41' E 135°13'510.4
2017-Aug-21 05:30N 34°37' E 135°10'4 8.8
2017-Aug-21 05:00N 34°37' E 135°05'511.1
2017-Aug-21 04:31N 34°32' E 135°02'5 8.7
2017-Aug-21 03:59N 34°28' E 134°60'4 8.3
2017-Aug-21 03:30N 34°28' E 135°05'4 8.7
2017-Aug-21 03:00N 34°31' E 135°09'3 5.9
2017-Aug-21 02:31N 34°31' E 135°12'3 6.7
2017-Aug-21 01:59N 34°29' E 135°16'510.5
2017-Aug-21 01:29N 34°32' E 135°21'4 9.1
2017-Aug-21 01:01N 34°37' E 135°21'3 6.8
2017-Aug-21 00:30N 34°40' E 135°21'5 9.9
2017-Aug-21 00:00N 34°37' E 135°16'3 5.7
2017-Aug-20 23:31N 34°40' E 135°15'3 5.7
2017-Aug-20 23:01N 34°41' E 135°12'  
2017-Aug-18 05:17N 34°41' E 135°12'0 1.7
2017-Aug-18 05:01N 34°42' E 135°13'3 5.9
2017-Aug-18 04:30N 34°39' E 135°13'2 3.9
2017-Aug-18 04:00N 34°38' E 135°10'0 0.0
2017-Aug-18 03:30N 34°38' E 135°10'0 0.8
2017-Aug-18 03:00N 34°38' E 135°10'713.8
2017-Aug-18 02:30N 34°33' E 135°04'1 1.9
2017-Aug-18 02:00N 34°33' E 135°04'3 5.2
2017-Aug-18 01:30N 34°34' E 135°07'3 6.7
2017-Aug-18 01:00N 34°37' E 135°10'5 9.8
2017-Aug-18 00:30N 34°41' E 135°13'0 0.0
2017-Aug-18 00:00N 34°41' E 135°13'0 0.0
2017-Aug-17 23:30N 34°41' E 135°13'1 1.4
2017-Aug-17 23:00N 34°41' E 135°12'0 0.0
2017-Aug-17 06:50N 34°41' E 135°12'0 0.0
2017-Aug-17 06:30N 34°41' E 135°12'2 3.1
2017-Aug-17 06:00N 34°40' E 135°12'4 8.7
2017-Aug-17 05:30N 34°36' E 135°10'2 3.8
2017-Aug-17 05:01N 34°35' E 135°11'714.1
2017-Aug-17 04:30N 34°27' E 135°09'5 9.8
2017-Aug-17 04:00N 34°23' E 135°10'0 0.0
2017-Aug-17 03:26N 34°23' E 135°10'0 0.0
2017-Aug-17 02:59N 34°23' E 135°10'4 7.4
2017-Aug-17 02:30N 34°26' E 135°08'714.0
2017-Aug-17 02:00N 34°32' E 135°09'3 5.3
2017-Aug-17 01:30N 34°35' E 135°08'0 0.3
2017-Aug-17 01:00N 34°35' E 135°08'0 0.3
2017-Aug-17 00:30N 34°35' E 135°08'4 8.1
2017-Aug-17 00:00N 34°38' E 135°11'4 7.3
2017-Aug-16 23:30N 34°42' E 135°12'  
Track history (hours):
 
Tides and Currents Weather Stations Pressure Air Temp Water Temp Dewpoint Dewpoint Depression Visibility Wind Speed Wind Dir Waves Ship Positions

Dr.kaiyo

Last reported at 2017-Aug-23 05:23 UTC. Time now 2017-Aug-23 17:14 UTC.
Position N 34°41' E 135°12'.

Length 31 m.

Type: Other ship. MMSI: 431301823.

Date/timePositionNaut miles runAvg speedWind from/ knotsBaromVisibWave heightAir tempDewpointWater temp
2017-Aug-23 05:23N 34°41' E 135°12'2 4.5
2017-Aug-23 05:00N 34°41' E 135°14'2 3.9
2017-Aug-23 04:30N 34°40' E 135°15'4 7.8
2017-Aug-23 04:00N 34°40' E 135°20'0 0.0
2017-Aug-23 03:30N 34°40' E 135°20'0 0.0
2017-Aug-23 03:00N 34°40' E 135°20'4 8.3
2017-Aug-23 02:30N 34°37' E 135°16'713.8
2017-Aug-23 02:00N 34°32' E 135°12'4 8.9
2017-Aug-23 01:30N 34°30' E 135°06'3 5.8
2017-Aug-23 01:01N 34°33' E 135°07'4 8.4
2017-Aug-23 00:30N 34°36' E 135°11'510.5
2017-Aug-23 00:00N 34°40' E 135°15'3 5.7
2017-Aug-22 23:31N 34°42' E 135°12'0 0.0
2017-Aug-22 04:46N 34°41' E 135°12'0 0.0
2017-Aug-22 04:31N 34°41' E 135°12'4 8.7
2017-Aug-22 04:01N 34°38' E 135°16'713.8
2017-Aug-22 03:31N 34°34' E 135°09'4 8.0
2017-Aug-22 03:00N 34°32' E 135°05'4 8.4
2017-Aug-22 02:30N 34°28' E 135°05'4 7.4
2017-Aug-22 01:56N 34°24' E 135°05'4 7.7
2017-Aug-22 01:24N 34°24' E 135°10'3 8.5
2017-Aug-22 01:00N 34°27' E 135°10'4 8.7
2017-Aug-22 00:30N 34°31' E 135°13'4 8.8
2017-Aug-22 00:00N 34°35' E 135°16'510.6
2017-Aug-21 23:30N 34°40' E 135°15'3 5.8
2017-Aug-21 23:00N 34°41' E 135°12'0 0.0
2017-Aug-21 06:16N 34°41' E 135°12'1 2.3
2017-Aug-21 06:00N 34°41' E 135°13'510.4
2017-Aug-21 05:30N 34°37' E 135°10'4 8.8
2017-Aug-21 05:00N 34°37' E 135°05'511.1
2017-Aug-21 04:31N 34°32' E 135°02'5 8.7
2017-Aug-21 03:59N 34°28' E 134°60'4 8.3
2017-Aug-21 03:30N 34°28' E 135°05'4 8.7
2017-Aug-21 03:00N 34°31' E 135°09'3 5.9
2017-Aug-21 02:31N 34°31' E 135°12'3 6.7
2017-Aug-21 01:59N 34°29' E 135°16'510.5
2017-Aug-21 01:29N 34°32' E 135°21'4 9.1
2017-Aug-21 01:01N 34°37' E 135°21'3 6.8
2017-Aug-21 00:30N 34°40' E 135°21'5 9.9
2017-Aug-21 00:00N 34°37' E 135°16'3 5.7
2017-Aug-20 23:31N 34°40' E 135°15'3 5.7
2017-Aug-20 23:01N 34°41' E 135°12'  
2017-Aug-18 05:17N 34°41' E 135°12'0 1.7
2017-Aug-18 05:01N 34°42' E 135°13'3 5.9
2017-Aug-18 04:30N 34°39' E 135°13'2 3.9
2017-Aug-18 04:00N 34°38' E 135°10'0 0.0
2017-Aug-18 03:30N 34°38' E 135°10'0 0.8
2017-Aug-18 03:00N 34°38' E 135°10'713.8
2017-Aug-18 02:30N 34°33' E 135°04'1 1.9
2017-Aug-18 02:00N 34°33' E 135°04'3 5.2
2017-Aug-18 01:30N 34°34' E 135°07'3 6.7
2017-Aug-18 01:00N 34°37' E 135°10'5 9.8
2017-Aug-18 00:30N 34°41' E 135°13'0 0.0
2017-Aug-18 00:00N 34°41' E 135°13'0 0.0
2017-Aug-17 23:30N 34°41' E 135°13'1 1.4
2017-Aug-17 23:00N 34°41' E 135°12'0 0.0
2017-Aug-17 06:50N 34°41' E 135°12'0 0.0
2017-Aug-17 06:30N 34°41' E 135°12'2 3.1
2017-Aug-17 06:00N 34°40' E 135°12'4 8.7
2017-Aug-17 05:30N 34°36' E 135°10'2 3.8
2017-Aug-17 05:01N 34°35' E 135°11'714.1
2017-Aug-17 04:30N 34°27' E 135°09'5 9.8
2017-Aug-17 04:00N 34°23' E 135°10'0 0.0
2017-Aug-17 03:26N 34°23' E 135°10'0 0.0
2017-Aug-17 02:59N 34°23' E 135°10'4 7.4
2017-Aug-17 02:30N 34°26' E 135°08'714.0
2017-Aug-17 02:00N 34°32' E 135°09'3 5.3
2017-Aug-17 01:30N 34°35' E 135°08'0 0.3
2017-Aug-17 01:00N 34°35' E 135°08'0 0.3
2017-Aug-17 00:30N 34°35' E 135°08'4 8.1
2017-Aug-17 00:00N 34°38' E 135°11'4 7.3
2017-Aug-16 23:30N 34°42' E 135°12'  

Dump ship's entire track history